Arroyo Hondo, New Mexico
Current Conditions -  °F | °C
As of 5:55 PM on Wednesday 22 Oct 2014 (Local Time) from KSKX Reporting Station
Scattered Clouds Scattered Clouds  
Wind Chill: 63°   Ceiling: Unl
Heat Index: 63°   Visibility: 10mi
Dew Point: 30°   Wind: 8mph
Humidity: 30%   Direction: 310°NW
Pressure: 30.21"   Gusts: NA
Location:  36.53°N, 105.67°W
Report Text: KSKX 222355Z AUTO 31007KT 10SM SCT090 17/M01 A3021 RMK AO1 10190 20140 401900060 52003
Loading
Personal Weather Stations






























Interactive Weather Map
Tropical Storm Tracking
New forecast layout! Learn more

10-Day Weather Forecast

Advertisements
Track Severe Weather on mobile